Hauptseite
METAR-TAF:

METAR-TAF

Flughäfen :

Venedig, Italien

Flughafen Venedig-Tessera

Breite: 45-30N, Länge: 012-20E, Höhe: 2 m

Beobachtung

Neuester Wetterbericht von vor 34 Minuten, um 19:20 UTC
Wind 4 kt aus Ost/Nordost
Temperatur 6°C
Luftfeuchtigkeit 81%
Luftdruck 1014 hPa
Sichtweite 10 km oder mehr
Aufgelockert bewölkt in der Höhe von 7000 ft

METAR: LIPZ 221920Z 06004KT 9999 SCT070 06/03 Q1014 NOSIG

Zeit: 20:54 (19:54 UTC)

Prognose

Neuester Wetterbericht von vor 2 Stunden und 54 Minuten, um 17:00 UTC
Gültige Prognose vom 22 um 18 UTC bis 23 um 24 UTC
Wind 8 kt aus Nord/Nordost
Sichtweite 10 km oder mehr
Aufgelockert bewölkt in der Höhe von 4000 ft

TAF: LIPZ 221700Z 2218/2324 02008KT 9999 SCT040

Wetterbeobachtungen und Prognosen von mehr als 4000 Flughäfen (METAR und TAF Bericht).

Die verfügbaren Stationen werden durch gelbe und rote Markierungen auf der Karte dargestellt.

Führen Sie die Maus auf sie, um den Namen der Station zu sehen.

Darauf klicken, um die Beobachtung von Wetterbeobachtungen und Prognosen zu sehen.

Um die Karte zu ändern : klicken Sie auf den grünen Tasten mit einem schwarzen Kreuz Zum Vergrößern, auf den grünen Button mit einem Gedankenstrich zu verkleinern, oder auf die grünen Pfeile für benachbarte Karten.


METAR-TAF: